createdAt,value
2018-05-17T00:01:01.634Z,13.3
2018-05-17T00:02:08.841Z,13.3
2018-05-17T00:03:16.047Z,13.3
2018-05-17T00:04:23.251Z,13.3
2018-05-17T00:05:30.189Z,13.3
2018-05-17T00:06:37.391Z,13.3
2018-05-17T00:07:44.603Z,13.3
2018-05-17T00:08:51.813Z,13.3
2018-05-17T00:09:59.020Z,13.3
2018-05-17T00:11:06.228Z,13.3
2018-05-17T00:12:13.157Z,13.3
2018-05-17T00:13:20.367Z,13.3
2018-05-17T00:14:27.575Z,13.3
2018-05-17T00:15:34.779Z,13.3
2018-05-17T00:16:41.711Z,13.3
2018-05-17T00:17:48.648Z,13.3
2018-05-17T00:18:55.865Z,13.3
2018-05-17T00:20:03.069Z,13.3
2018-05-17T00:21:10.280Z,13.3
2018-05-17T00:22:17.486Z,13.3
2018-05-17T00:23:24.690Z,13.3
2018-05-17T00:24:31.896Z,13.2
2018-05-17T00:25:39.105Z,13.2
2018-05-17T00:26:46.308Z,13.2
2018-05-17T00:27:53.513Z,13.2
2018-05-17T00:29:00.721Z,13.2
2018-05-17T00:30:08.009Z,13.2
2018-05-17T00:31:15.223Z,13.2
2018-05-17T00:32:22.433Z,13.2
2018-05-17T00:33:29.630Z,13.2
2018-05-17T00:34:36.832Z,13.2
2018-05-17T00:35:44.128Z,13.2
2018-05-17T00:36:51.377Z,13.2
2018-05-17T00:37:58.582Z,13.2
2018-05-17T00:39:05.789Z,13.2
2018-05-17T00:40:13.007Z,13.2
2018-05-17T00:41:20.195Z,13.2
2018-05-17T00:42:27.402Z,13.2
2018-05-17T00:43:34.607Z,13.2
2018-05-17T00:44:41.815Z,13.2
2018-05-17T00:45:49.026Z,13.2
2018-05-17T00:46:55.957Z,13.2
2018-05-17T00:48:03.168Z,13.2
2018-05-17T00:49:10.367Z,13.1
2018-05-17T00:50:17.570Z,13.1
2018-05-17T00:51:24.778Z,13.2
2018-05-17T00:52:31.976Z,13.2
2018-05-17T00:53:38.908Z,13.2
2018-05-17T00:54:46.362Z,13.2
2018-05-17T00:55:53.286Z,13.2
2018-05-17T00:57:00.488Z,13.1
2018-05-17T00:58:07.688Z,13.2
2018-05-17T00:59:14.893Z,13.2
2018-05-17T01:00:22.096Z,13.2
2018-05-17T01:01:29.302Z,13.2
2018-05-17T01:02:36.516Z,13.2
2018-05-17T01:03:43.724Z,13.2
2018-05-17T01:04:50.945Z,13.2
2018-05-17T01:05:58.161Z,13.1
2018-05-17T01:07:05.389Z,13.2
2018-05-17T01:08:12.597Z,13.1
2018-05-17T01:09:19.528Z,13.2
2018-05-17T01:10:26.731Z,13.1
2018-05-17T01:11:33.674Z,13.1
2018-05-17T01:12:40.876Z,13.1
2018-05-17T01:13:48.083Z,13.1
2018-05-17T01:14:55.284Z,13.1
2018-05-17T01:16:02.488Z,13.1
2018-05-17T01:17:09.696Z,13.1
2018-05-17T01:18:16.899Z,13.1
2018-05-17T01:19:24.104Z,13.1
2018-05-17T01:20:31.306Z,13.1
2018-05-17T01:21:38.512Z,13.1
2018-05-17T01:22:45.722Z,13
2018-05-17T01:23:52.922Z,13.1
2018-05-17T01:24:59.847Z,13
2018-05-17T01:26:07.127Z,13
2018-05-17T01:27:14.332Z,13
2018-05-17T01:28:21.536Z,13
2018-05-17T01:29:28.742Z,13
2018-05-17T01:30:35.944Z,13
2018-05-17T01:31:43.146Z,12.9
2018-05-17T01:32:50.350Z,12.9
2018-05-17T01:33:57.556Z,12.9
2018-05-17T01:35:04.954Z,12.9
2018-05-17T01:36:12.271Z,12.9
2018-05-17T01:37:19.207Z,12.9
2018-05-17T01:38:26.408Z,12.9
2018-05-17T01:39:33.619Z,12.9
2018-05-17T01:40:40.825Z,12.9
2018-05-17T01:41:47.833Z,12.9
2018-05-17T01:42:55.038Z,12.9
2018-05-17T01:44:02.243Z,12.9
2018-05-17T01:45:09.453Z,12.9
2018-05-17T01:46:16.658Z,12.9
2018-05-17T01:47:23.592Z,13
2018-05-17T01:48:30.791Z,13
2018-05-17T01:49:37.995Z,13
2018-05-17T01:50:45.204Z,13
2018-05-17T01:51:52.406Z,13
2018-05-17T01:52:59.338Z,13.1
2018-05-17T01:54:06.539Z,13.1
2018-05-17T01:55:13.742Z,13.1
2018-05-17T01:56:20.676Z,13.1
2018-05-17T01:57:27.614Z,13.1
2018-05-17T01:58:34.819Z,13.1
2018-05-17T01:59:42.025Z,13.1
2018-05-17T02:00:49.227Z,13.1
2018-05-17T02:01:56.425Z,13.1
2018-05-17T02:03:03.627Z,13.1
2018-05-17T02:04:10.832Z,13.1
2018-05-17T02:05:18.034Z,13.1
2018-05-17T02:06:25.235Z,13.1
2018-05-17T02:07:32.438Z,13
2018-05-17T02:08:39.432Z,13
2018-05-17T02:09:46.635Z,13
2018-05-17T02:10:53.837Z,13
2018-05-17T02:12:01.046Z,13
2018-05-17T02:13:08.255Z,13
2018-05-17T02:14:15.458Z,13
2018-05-17T02:15:22.660Z,13
2018-05-17T02:16:29.591Z,13
2018-05-17T02:17:36.797Z,12.9
2018-05-17T02:18:44.001Z,13
2018-05-17T02:19:51.208Z,12.9
2018-05-17T02:20:58.414Z,12.9
2018-05-17T02:22:05.618Z,13
2018-05-17T02:23:12.846Z,13
2018-05-17T02:24:20.051Z,13
2018-05-17T02:25:27.264Z,13
2018-05-17T02:26:34.473Z,13
2018-05-17T02:27:41.674Z,12.9
2018-05-17T02:28:48.887Z,12.9
2018-05-17T02:29:55.820Z,12.9
2018-05-17T02:31:03.030Z,12.9
2018-05-17T02:32:10.235Z,12.9
2018-05-17T02:33:17.448Z,12.9
2018-05-17T02:34:24.683Z,12.8
2018-05-17T02:35:31.885Z,12.8
2018-05-17T02:36:39.085Z,12.8
2018-05-17T02:37:46.288Z,12.8
2018-05-17T02:38:53.498Z,12.8
2018-05-17T02:40:00.702Z,12.8
2018-05-17T02:41:07.626Z,12.8
2018-05-17T02:42:14.825Z,12.8
2018-05-17T02:43:22.027Z,12.8
2018-05-17T02:44:29.232Z,12.8
2018-05-17T02:45:36.436Z,12.8
2018-05-17T02:46:43.646Z,12.8
2018-05-17T02:47:50.850Z,12.8
2018-05-17T02:48:58.063Z,12.8
2018-05-17T02:50:05.265Z,12.8
2018-05-17T02:51:12.468Z,12.8
2018-05-17T02:52:19.670Z,12.8
2018-05-17T02:53:26.878Z,12.8
2018-05-17T02:54:34.090Z,12.8
2018-05-17T02:55:41.294Z,12.8
2018-05-17T02:56:48.515Z,12.8
2018-05-17T02:57:55.716Z,12.8
2018-05-17T02:59:02.918Z,12.8
2018-05-17T03:00:10.120Z,12.8
2018-05-17T03:01:17.322Z,12.8
2018-05-17T03:02:24.527Z,12.8
2018-05-17T03:03:31.734Z,12.8
2018-05-17T03:04:38.966Z,12.8
2018-05-17T03:05:45.904Z,12.8
2018-05-17T03:06:53.111Z,12.8
2018-05-17T03:08:00.315Z,12.8
2018-05-17T03:09:07.518Z,12.8
2018-05-17T03:10:14.728Z,12.8
2018-05-17T03:11:21.652Z,12.8
2018-05-17T03:12:28.865Z,12.8
2018-05-17T03:13:36.066Z,12.8
2018-05-17T03:14:43.272Z,12.8
2018-05-17T03:15:50.479Z,12.8
2018-05-17T03:16:57.682Z,12.8
2018-05-17T03:18:04.897Z,12.8
2018-05-17T03:19:12.100Z,12.8
2018-05-17T03:20:19.033Z,12.8
2018-05-17T03:21:26.242Z,12.8
2018-05-17T03:22:33.176Z,12.8
2018-05-17T03:23:40.376Z,12.9
2018-05-17T03:24:47.578Z,12.9
2018-05-17T03:25:54.787Z,12.9
2018-05-17T03:27:01.718Z,12.9
2018-05-17T03:28:08.921Z,12.9
2018-05-17T03:29:16.130Z,12.9
2018-05-17T03:30:23.334Z,12.8
2018-05-17T03:31:30.534Z,12.9
2018-05-17T03:32:37.736Z,12.9
2018-05-17T03:33:44.942Z,12.9
2018-05-17T03:34:52.140Z,12.9
2018-05-17T03:35:59.344Z,12.9
2018-05-17T03:37:06.613Z,12.9
2018-05-17T03:38:13.814Z,12.9
2018-05-17T03:39:21.019Z,12.9
2018-05-17T03:40:28.226Z,12.9
2018-05-17T03:41:35.433Z,12.9
2018-05-17T03:42:42.646Z,12.9
2018-05-17T03:43:49.848Z,12.8
2018-05-17T03:44:57.051Z,12.9
2018-05-17T03:46:04.253Z,12.9
2018-05-17T03:47:11.456Z,12.9
2018-05-17T03:48:18.661Z,12.9
2018-05-17T03:49:25.961Z,12.9
2018-05-17T03:50:33.160Z,12.9
2018-05-17T03:51:40.363Z,12.9
2018-05-17T03:52:47.570Z,12.9
2018-05-17T03:53:54.776Z,12.9
2018-05-17T03:55:01.983Z,12.8
2018-05-17T03:56:09.186Z,12.9
2018-05-17T03:57:16.384Z,12.9
2018-05-17T03:58:23.589Z,12.8
2018-05-17T03:59:30.791Z,12.9
2018-05-17T04:00:37.717Z,12.8
2018-05-17T04:01:44.924Z,12.9
2018-05-17T04:02:52.129Z,12.8
2018-05-17T04:03:59.337Z,12.9
2018-05-17T04:05:06.672Z,12.9
2018-05-17T04:06:13.646Z,12.9
2018-05-17T04:07:20.851Z,12.9
2018-05-17T04:08:28.141Z,12.9
2018-05-17T04:09:35.385Z,12.9
2018-05-17T04:10:42.316Z,12.9
2018-05-17T04:11:49.242Z,12.9
2018-05-17T04:12:56.445Z,12.9
2018-05-17T04:14:03.380Z,12.9
2018-05-17T04:15:10.596Z,12.9
2018-05-17T04:16:17.521Z,12.9
2018-05-17T04:17:24.727Z,12.9
2018-05-17T04:18:31.927Z,13
2018-05-17T04:19:39.136Z,13
2018-05-17T04:20:46.343Z,12.9
2018-05-17T04:21:53.551Z,12.9
2018-05-17T04:23:00.764Z,12.9
2018-05-17T04:24:07.972Z,13
2018-05-17T04:25:15.174Z,13
2018-05-17T04:26:22.381Z,13
2018-05-17T04:27:29.308Z,13
2018-05-17T04:28:36.514Z,13
2018-05-17T04:29:43.719Z,13
2018-05-17T04:30:50.927Z,13
2018-05-17T04:31:57.857Z,13
2018-05-17T04:33:05.060Z,13.1
2018-05-17T04:34:12.268Z,13.1
2018-05-17T04:35:19.489Z,13.1
2018-05-17T04:36:26.697Z,13.1
2018-05-17T04:37:33.895Z,13.1
2018-05-17T04:38:41.104Z,13.1
2018-05-17T04:39:48.373Z,13.1
2018-05-17T04:40:55.573Z,13.1
2018-05-17T04:42:02.775Z,13.1
2018-05-17T04:43:09.742Z,13.1
2018-05-17T04:44:16.948Z,13.1
2018-05-17T04:45:24.150Z,13.1
2018-05-17T04:46:31.357Z,13.2
2018-05-17T04:47:38.283Z,13.2
2018-05-17T04:48:45.490Z,13.2
2018-05-17T04:49:52.697Z,13.3
2018-05-17T04:50:59.910Z,13.3
2018-05-17T04:52:07.111Z,13.2
2018-05-17T04:53:14.317Z,13.3
2018-05-17T04:54:21.257Z,13.3
2018-05-17T04:55:28.472Z,13.4
2018-05-17T04:56:35.676Z,13.4
2018-05-17T04:57:42.601Z,13.5
2018-05-17T04:58:49.807Z,13.5
2018-05-17T04:59:56.742Z,13.4
2018-05-17T05:01:03.954Z,13.4
2018-05-17T05:02:10.890Z,13.5
2018-05-17T05:03:18.094Z,13.5
2018-05-17T05:04:25.299Z,13.5
2018-05-17T05:05:32.228Z,13.5
2018-05-17T05:06:39.432Z,13.6
2018-05-17T05:07:46.637Z,13.7
2018-05-17T05:08:53.844Z,13.7
2018-05-17T05:10:00.767Z,13.7
2018-05-17T05:11:07.980Z,13.8
2018-05-17T05:12:15.207Z,13.8
2018-05-17T05:13:22.287Z,13.9
2018-05-17T05:14:29.504Z,13.9
2018-05-17T05:15:36.699Z,13.9
2018-05-17T05:16:43.904Z,14
2018-05-17T05:17:51.108Z,14
2018-05-17T05:18:58.316Z,14
2018-05-17T05:20:05.523Z,14
2018-05-17T05:21:12.729Z,14
2018-05-17T05:22:19.884Z,14
2018-05-17T05:23:27.095Z,14
2018-05-17T05:24:34.299Z,14
2018-05-17T05:25:41.505Z,14.1
2018-05-17T05:26:48.707Z,14.1
2018-05-17T05:27:55.919Z,14.1
2018-05-17T05:29:03.122Z,14
2018-05-17T05:30:10.325Z,14
2018-05-17T05:31:17.535Z,14
2018-05-17T05:32:24.740Z,14
2018-05-17T05:33:31.948Z,14
2018-05-17T05:34:39.157Z,13.9
2018-05-17T05:35:46.369Z,13.9
2018-05-17T05:36:53.589Z,13.9
2018-05-17T05:38:00.788Z,13.8
2018-05-17T05:39:07.993Z,13.8
2018-05-17T05:40:14.988Z,13.8
2018-05-17T05:41:22.272Z,13.7
2018-05-17T05:42:29.483Z,13.8
2018-05-17T05:43:36.492Z,13.8
2018-05-17T05:44:43.686Z,13.9
2018-05-17T05:45:50.897Z,13.9
2018-05-17T05:46:58.107Z,14
2018-05-17T05:48:05.311Z,14.1
2018-05-17T05:49:12.683Z,14.1
2018-05-17T05:50:20.112Z,14.2
2018-05-17T05:51:27.317Z,14.2
2018-05-17T05:52:34.522Z,14.2
2018-05-17T05:53:41.728Z,14.3
2018-05-17T05:54:48.625Z,14.3
2018-05-17T05:55:55.834Z,14.4
2018-05-17T05:57:02.759Z,14.5
2018-05-17T05:58:09.964Z,14.4
2018-05-17T05:59:17.168Z,14.4
2018-05-17T06:00:24.377Z,14.5
2018-05-17T06:01:31.307Z,14.5
2018-05-17T06:02:38.514Z,14.6
2018-05-17T06:03:45.714Z,14.6
2018-05-17T06:04:52.923Z,14.7
2018-05-17T06:06:00.132Z,14.7
2018-05-17T06:07:07.337Z,14.8
2018-05-17T06:08:14.538Z,14.8
2018-05-17T06:09:21.813Z,14.8
2018-05-17T06:10:29.019Z,14.8
2018-05-17T06:11:36.224Z,14.8
2018-05-17T06:12:43.433Z,14.8
2018-05-17T06:13:50.640Z,14.8
2018-05-17T06:14:57.849Z,14.7
2018-05-17T22:00:06.806Z,10.5
2018-05-17T22:01:13.784Z,10.5
2018-05-17T22:02:20.978Z,10.5
2018-05-17T22:03:28.185Z,10.5
2018-05-17T22:04:35.389Z,10.5
2018-05-17T22:05:42.591Z,10.4
2018-05-17T22:06:49.495Z,10.5
2018-05-17T22:07:56.699Z,10.4
2018-05-17T22:09:03.902Z,10.4
2018-05-17T22:10:10.828Z,10.3
2018-05-17T22:11:18.033Z,10.3
2018-05-17T22:12:25.239Z,10.3
2018-05-17T22:13:32.441Z,10.2
2018-05-17T22:14:39.646Z,10.2
2018-05-17T22:15:46.850Z,10.2
2018-05-17T22:16:54.054Z,10.2
2018-05-17T22:18:00.982Z,10.2
2018-05-17T22:19:08.189Z,10.2
2018-05-17T22:20:15.401Z,10.2
2018-05-17T22:21:22.611Z,10.1
2018-05-17T22:22:29.817Z,10
2018-05-17T22:23:51.673Z,10
2018-05-17T22:24:58.876Z,10
2018-05-17T22:26:05.803Z,10
2018-05-17T22:27:13.016Z,10
2018-05-17T22:28:20.242Z,10.1
2018-05-17T22:29:27.464Z,10.1
2018-05-17T22:30:34.674Z,10.1
2018-05-17T22:31:41.885Z,10.1
2018-05-17T22:32:49.086Z,10.1
2018-05-17T22:33:56.290Z,10
2018-05-17T22:35:03.490Z,10
2018-05-17T22:36:10.936Z,10
2018-05-17T22:37:18.123Z,10
2018-05-17T22:38:25.327Z,10
2018-05-17T22:39:32.534Z,9.9
2018-05-17T22:40:39.173Z,9.9
2018-05-17T22:41:46.095Z,9.8
2018-05-17T22:42:53.027Z,9.8
2018-05-17T22:44:00.248Z,9.8
2018-05-17T22:45:07.451Z,9.8
2018-05-17T22:46:14.374Z,9.7
2018-05-17T22:47:21.582Z,9.7
2018-05-17T22:48:28.786Z,9.7
2018-05-17T22:49:35.984Z,9.6
2018-05-17T22:50:43.219Z,9.7
2018-05-17T22:51:50.499Z,9.6
2018-05-17T22:52:57.831Z,9.6
2018-05-17T22:54:05.033Z,9.6
2018-05-17T22:55:12.238Z,9.6
2018-05-17T22:56:19.441Z,9.6
2018-05-17T22:57:26.649Z,9.6
2018-05-17T22:58:33.849Z,9.6
2018-05-17T22:59:41.055Z,9.6
2018-05-17T23:00:48.259Z,9.6
2018-05-17T23:01:55.196Z,9.6
2018-05-17T23:03:02.400Z,9.6
2018-05-17T23:04:09.599Z,9.5
2018-05-17T23:05:16.817Z,9.6
2018-05-17T23:06:24.003Z,9.5
2018-05-17T23:07:31.208Z,9.5
2018-05-17T23:08:38.139Z,9.5
2018-05-17T23:09:45.346Z,9.4
2018-05-17T23:10:52.550Z,9.4
2018-05-17T23:11:59.756Z,9.4
2018-05-17T23:13:06.961Z,9.3
2018-05-17T23:14:14.171Z,9.3
2018-05-17T23:15:21.107Z,9.3
2018-05-17T23:16:28.318Z,9.3
2018-05-17T23:17:35.521Z,9.2
2018-05-17T23:18:42.723Z,9.2
2018-05-17T23:19:49.926Z,9.2
2018-05-17T23:20:57.129Z,9.2
2018-05-17T23:22:04.331Z,9.2
2018-05-17T23:23:11.264Z,9.1
2018-05-17T23:24:18.468Z,9.1
2018-05-17T23:25:25.673Z,9.1
2018-05-17T23:26:32.877Z,9
2018-05-17T23:27:40.076Z,9
2018-05-17T23:28:47.276Z,8.9
2018-05-17T23:29:54.479Z,8.9
2018-05-17T23:31:01.690Z,8.9
2018-05-17T23:32:08.892Z,8.9
2018-05-17T23:33:15.824Z,8.9
2018-05-17T23:34:23.025Z,8.9
2018-05-17T23:35:30.228Z,8.9
2018-05-17T23:36:37.438Z,8.9
2018-05-17T23:37:44.637Z,8.9
2018-05-17T23:38:51.844Z,8.9
2018-05-17T23:39:59.043Z,8.8
2018-05-17T23:41:06.248Z,8.8
2018-05-17T23:42:13.451Z,8.8
2018-05-17T23:43:20.650Z,8.7
2018-05-17T23:44:27.576Z,8.7
2018-05-17T23:45:34.779Z,8.7
2018-05-17T23:46:41.713Z,8.7
2018-05-17T23:47:48.915Z,8.7
2018-05-17T23:48:56.126Z,8.6
2018-05-17T23:50:03.322Z,8.5
2018-05-17T23:51:10.521Z,8.5
2018-05-17T23:52:17.727Z,8.5
2018-05-17T23:53:24.936Z,8.5
2018-05-17T23:54:32.139Z,8.5
2018-05-17T23:55:39.349Z,8.5
2018-05-17T23:56:46.555Z,8.5
2018-05-17T23:57:53.764Z,8.5
2018-05-17T23:59:00.690Z,8.5
